Time;durP1;ratioP1;P1;durP2;ratioP2;P2;SDS_P1;SDS_P2;PMS_P1;PMS_P2;Temp;Humidity;BMP_temperature;BMP_pressure;BME280_temperature;BME280_humidity;BME280_pressure;Samples;Min_cycle;Max_cycle;Signal;HPM_P1;HPM_P2
2024/02/20 00:02:18;;;;;;;27.60;2.50;;;5.90;99.90;;;;;;4966917;28;20164;-91
2024/02/20 00:04:44;;;;;;;22.95;2.72;;;5.90;99.90;;;;;;4958884;28;20038;-91
2024/02/20 00:07:10;;;;;;;29.05;3.15;;;5.90;99.90;;;;;;4955122;28;20022;-91
2024/02/20 00:09:36;;;;;;;23.98;3.22;;;5.80;99.90;;;;;;4967691;28;20042;-92
2024/02/20 00:12:02;;;;;;;26.77;2.60;;;5.80;99.90;;;;;;4951374;28;20506;-91
2024/02/20 00:14:28;;;;;;;27.00;3.70;;;5.80;99.90;;;;;;4954713;28;20038;-90
2024/02/20 00:16:54;;;;;;;32.58;3.30;;;5.70;99.90;;;;;;4954378;28;20037;-91
2024/02/20 00:19:22;;;;;;;29.35;4.88;;;5.70;99.90;;;;;;4966145;28;20042;-91
2024/02/20 00:21:48;;;;;;;27.58;3.67;;;5.60;99.90;;;;;;4952721;28;20037;-91
2024/02/20 00:24:14;;;;;;;23.30;2.47;;;5.60;99.90;;;;;;4951909;28;20034;-90
2024/02/20 00:26:40;;;;;;;28.98;3.13;;;5.50;99.90;;;;;;4953262;28;20638;-90
2024/02/20 00:29:07;;;;;;;24.23;3.42;;;5.50;99.90;;;;;;4965408;28;20054;-92
2024/02/20 00:31:33;;;;;;;40.15;6.68;;;5.40;99.90;;;;;;4954949;28;20026;-91
2024/02/20 00:34:02;;;;;;;26.80;3.50;;;5.40;99.90;;;;;;4953232;28;20390;-91
2024/02/20 00:36:28;;;;;;;23.95;2.42;;;5.40;99.90;;;;;;4954769;28;20072;-89
2024/02/20 00:38:55;;;;;;;24.95;3.20;;;5.40;99.90;;;;;;4966210;28;20053;-92
2024/02/20 00:41:21;;;;;;;25.52;3.53;;;5.40;99.90;;;;;;4964631;28;20109;-93
2024/02/20 00:43:47;;;;;;;28.73;4.38;;;5.40;99.90;;;;;;4954508;28;20116;-91
2024/02/20 00:46:19;;;;;;;32.17;5.20;;;5.40;99.90;;;;;;4970595;28;20513;-91
2024/02/20 00:48:49;;;;;;;23.48;3.15;;;5.40;99.90;;;;;;4971655;28;20106;-92
2024/02/20 00:51:19;;;;;;;25.50;2.72;;;5.30;99.90;;;;;;4975060;28;20390;-91
2024/02/20 00:53:51;;;;;;;19.63;3.05;;;5.30;99.90;;;;;;4964500;28;20026;-91
2024/02/20 00:56:18;;;;;;;24.75;3.10;;;5.30;99.90;;;;;;4972283;28;20031;-90
2024/02/20 00:58:45;;;;;;;30.70;3.97;;;5.30;99.90;;;;;;4974853;28;20035;-91
2024/02/20 01:01:14;;;;;;;37.67;4.85;;;5.30;99.90;;;;;;4986000;28;20038;-92
2024/02/20 01:03:42;;;;;;;19.83;2.45;;;5.30;99.90;;;;;;4964666;28;20027;-92
2024/02/20 01:06:09;;;;;;;24.40;4.00;;;5.30;99.90;;;;;;4974425;28;20034;-92
2024/02/20 01:08:39;;;;;;;21.42;3.85;;;5.30;99.90;;;;;;4966595;28;20039;-91
2024/02/20 01:11:05;;;;;;;28.00;4.25;;;5.30;99.90;;;;;;4969382;28;20023;-91
2024/02/20 01:13:31;;;;;;;22.73;3.45;;;5.20;99.90;;;;;;4974390;28;20445;-91
2024/02/20 01:15:56;;;;;;;36.20;4.90;;;5.20;99.90;;;;;;4974603;28;20023;-92
2024/02/20 01:18:22;;;;;;;22.00;3.40;;;5.10;99.90;;;;;;4967949;28;20081;-91
2024/02/20 01:20:48;;;;;;;34.03;4.22;;;5.10;99.90;;;;;;4965807;28;20118;-92
2024/02/20 01:23:14;;;;;;;26.15;3.67;;;5.10;99.90;;;;;;4966405;28;20494;-92
2024/02/20 01:25:41;;;;;;;26.08;4.65;;;5.10;99.90;;;;;;4952801;28;20566;-91
2024/02/20 01:28:07;;;;;;;22.95;4.00;;;5.10;99.90;;;;;;4971868;28;20117;-92
2024/02/20 01:30:33;;;;;;;33.95;3.10;;;5.10;99.90;;;;;;4957970;28;21140;-91
2024/02/20 01:32:59;;;;;;;29.13;3.50;;;5.10;99.90;;;;;;4956091;28;20045;-91
2024/02/20 01:35:26;;;;;;;23.27;4.38;;;5.10;99.90;;;;;;4959147;28;20038;-91
2024/02/20 01:37:52;;;;;;;29.15;4.03;;;5.00;99.90;;;;;;4961108;28;20031;-91
2024/02/20 01:40:19;;;;;;;22.27;3.40;;;5.10;99.90;;;;;;4989398;28;20479;-91
2024/02/20 01:42:57;;;;;;;38.50;4.28;;;5.10;99.90;;;;;;4991707;28;20040;-90
2024/02/20 01:45:29;;;;;;;24.98;4.82;;;5.20;99.90;;;;;;4970777;28;20084;-91
2024/02/20 01:48:03;;;;;;;27.07;3.23;;;5.30;99.90;;;;;;4991519;28;20061;-91
2024/02/20 01:50:36;;;;;;;29.17;4.20;;;5.30;99.90;;;;;;4991042;28;20030;-92
2024/02/20 01:53:02;;;;;;;34.83;3.72;;;5.30;99.90;;;;;;4985295;28;20594;-92
2024/02/20 01:55:28;;;;;;;20.35;3.17;;;5.40;99.90;;;;;;4951450;28;20092;-91
2024/02/20 01:57:54;;;;;;;30.45;3.88;;;5.40;99.90;;;;;;4954825;28;20089;-91
2024/02/20 02:00:22;;;;;;;25.92;3.33;;;5.40;99.90;;;;;;4972477;28;20142;-91
2024/02/20 02:02:48;;;;;;;28.98;5.07;;;5.40;99.90;;;;;;4959042;28;20034;-91
2024/02/20 02:05:14;;;;;;;32.33;4.85;;;5.40;99.90;;;;;;4970137;28;20030;-92
2024/02/20 02:07:40;;;;;;;28.83;4.40;;;5.40;99.90;;;;;;4971304;28;20034;-91
2024/02/20 02:10:06;;;;;;;34.38;4.10;;;5.40;99.90;;;;;;4971387;28;20570;-91
2024/02/20 02:12:32;;;;;;;35.65;5.00;;;5.40;99.90;;;;;;4970204;28;20030;-91
2024/02/20 02:14:58;;;;;;;32.05;3.72;;;5.40;99.90;;;;;;4972233;28;21997;-91
2024/02/20 02:17:23;;;;;;;30.25;3.70;;;5.50;99.90;;;;;;4959512;28;20037;-91
2024/02/20 02:19:49;;;;;;;27.92;3.60;;;5.50;99.90;;;;;;4962016;28;20035;-91
2024/02/20 02:22:15;;;;;;;27.65;3.25;;;5.50;99.90;;;;;;4962476;28;20485;-91
2024/02/20 02:24:41;;;;;;;27.08;4.13;;;5.50;99.90;;;;;;4964785;28;20030;-91
2024/02/20 02:27:07;;;;;;;42.30;5.10;;;5.50;99.90;;;;;;4961518;28;20141;-91
2024/02/20 02:29:32;;;;;;;28.23;4.28;;;5.50;99.90;;;;;;4965685;28;20128;-91
2024/02/20 02:31:59;;;;;;;30.60;3.88;;;5.60;99.90;;;;;;4957137;28;20534;-91
2024/02/20 02:34:27;;;;;;;30.20;3.88;;;5.60;99.90;;;;;;4967948;28;20132;-92
2024/02/20 02:36:53;;;;;;;25.85;3.95;;;5.60;99.90;;;;;;4963821;28;20031;-91
2024/02/20 02:39:20;;;;;;;39.45;4.40;;;5.60;99.90;;;;;;4963906;28;20076;-92
2024/02/20 02:41:48;;;;;;;25.48;3.50;;;5.60;99.90;;;;;;4962796;28;20034;-92
2024/02/20 02:44:14;;;;;;;25.70;4.40;;;5.60;99.90;;;;;;4971673;28;20113;-92
2024/02/20 02:46:39;;;;;;;33.72;3.38;;;5.60;99.90;;;;;;4973766;28;20149;-92
2024/02/20 02:49:07;;;;;;;35.55;5.25;;;5.60;99.90;;;;;;4964270;28;20050;-92
2024/02/20 02:51:33;;;;;;;31.55;5.18;;;5.70;99.90;;;;;;4966444;28;20468;-91
2024/02/20 02:53:59;;;;;;;28.88;5.78;;;5.60;99.90;;;;;;4960641;28;20125;-91
2024/02/20 02:56:25;;;;;;;37.50;6.00;;;5.60;99.90;;;;;;4983654;28;20034;-90
2024/02/20 02:58:50;;;;;;;39.08;5.40;;;5.60;99.90;;;;;;4960314;28;20041;-89
2024/02/20 03:01:16;;;;;;;43.13;5.40;;;5.60;99.90;;;;;;4976284;28;20022;-90
2024/02/20 03:03:42;;;;;;;24.88;3.95;;;5.60;99.90;;;;;;4981311;28;20057;-89
2024/02/20 03:06:08;;;;;;;28.02;4.88;;;5.60;99.90;;;;;;4958135;28;20023;-90
2024/02/20 03:08:44;;;;;;;21.77;4.00;;;5.50;99.90;;;;;;4956289;28;20482;-90
2024/02/20 03:11:11;;;;;;;32.10;5.05;;;5.60;99.90;;;;;;4967127;28;20625;-90
2024/02/20 03:13:36;;;;;;;29.52;5.75;;;5.60;99.90;;;;;;4967711;28;20026;-89
2024/02/20 03:16:03;;;;;;;28.13;4.70;;;5.50;99.90;;;;;;4975830;28;20506;-89
2024/02/20 03:18:44;;;;;;;36.47;5.53;;;5.50;99.90;;;;;;4988408;28;20030;-89
2024/02/20 03:21:09;;;;;;;27.00;5.20;;;5.60;99.90;;;;;;4988974;28;20383;-89
2024/02/20 03:23:35;;;;;;;39.05;6.53;;;5.60;99.90;;;;;;4977814;28;20030;-90
2024/02/20 03:26:03;;;;;;;34.28;6.43;;;5.50;99.90;;;;;;4993495;28;20033;-89
2024/02/20 03:28:29;;;;;;;29.77;5.32;;;5.50;99.90;;;;;;4976592;28;20065;-89
2024/02/20 03:30:55;;;;;;;23.52;5.00;;;5.50;99.90;;;;;;4985362;28;20081;-88
2024/02/20 03:33:25;;;;;;;33.55;6.68;;;5.50;99.90;;;;;;4987038;28;20049;-90
2024/02/20 03:35:52;;;;;;;42.67;7.40;;;5.60;99.90;;;;;;4976028;28;20190;-89
2024/02/20 03:38:17;;;;;;;27.10;6.00;;;5.50;99.90;;;;;;4974158;28;20022;-89
2024/02/20 03:40:43;;;;;;;38.38;7.30;;;5.60;99.90;;;;;;4972649;28;20066;-89
2024/02/20 03:43:09;;;;;;;38.55;8.55;;;5.50;99.90;;;;;;4973480;28;20498;-90
2024/02/20 03:45:35;;;;;;;31.27;5.68;;;5.50;99.90;;;;;;4987946;28;20026;-89
2024/02/20 03:48:00;;;;;;;33.40;7.60;;;5.50;99.90;;;;;;4976871;28;20583;-89
2024/02/20 03:50:26;;;;;;;27.65;6.03;;;5.50;99.90;;;;;;4964031;28;20043;-90
2024/02/20 03:52:52;;;;;;;31.33;7.45;;;5.50;99.90;;;;;;4958857;28;20208;-89
2024/02/20 03:55:18;;;;;;;25.17;7.18;;;5.50;99.90;;;;;;4955976;28;20030;-89
2024/02/20 03:57:43;;;;;;;32.42;8.55;;;5.50;99.90;;;;;;4956453;28;20046;-89
2024/02/20 04:00:11;;;;;;;31.63;6.18;;;5.50;99.90;;;;;;4971666;28;20041;-90
2024/02/20 04:02:42;;;;;;;29.98;7.78;;;5.50;99.90;;;;;;4958547;28;20084;-90
2024/02/20 04:05:11;;;;;;;37.28;7.03;;;5.50;99.90;;;;;;4956821;28;20031;-89
2024/02/20 04:07:41;;;;;;;37.42;8.32;;;5.50;99.90;;;;;;4956123;28;20111;-90
2024/02/20 04:10:08;;;;;;;30.00;6.68;;;5.50;99.90;;;;;;4957046;28;20811;-90
2024/02/20 04:12:34;;;;;;;34.75;6.43;;;5.50;99.90;;;;;;4967903;28;20067;-90
2024/02/20 04:15:04;;;;;;;28.13;6.95;;;5.50;99.90;;;;;;4973719;28;20225;-89
2024/02/20 04:17:29;;;;;;;28.40;6.75;;;5.40;99.90;;;;;;4968478;28;20034;-90
2024/02/20 04:19:55;;;;;;;33.40;8.68;;;5.50;99.90;;;;;;4968985;28;20074;-90
2024/02/20 04:22:20;;;;;;;26.88;7.53;;;5.50;99.90;;;;;;4956149;28;20034;-90
2024/02/20 04:24:46;;;;;;;38.15;7.65;;;5.50;99.90;;;;;;4955980;28;20517;-89
2024/02/20 04:27:12;;;;;;;29.92;7.32;;;5.60;99.90;;;;;;4967907;28;20121;-89
2024/02/20 04:29:37;;;;;;;35.22;9.13;;;5.60;99.90;;;;;;4959953;28;20038;-90
2024/02/20 04:32:03;;;;;;;38.65;7.55;;;5.60;99.90;;;;;;4959006;28;20034;-90
2024/02/20 04:34:29;;;;;;;29.58;7.35;;;5.60;99.90;;;;;;4989677;28;20111;-89
2024/02/20 04:36:54;;;;;;;38.75;8.60;;;5.70;99.90;;;;;;4973354;28;20118;-89
2024/02/20 04:39:20;;;;;;;25.85;6.55;;;5.70;99.90;;;;;;4973135;28;20030;-89
2024/02/20 04:41:45;;;;;;;29.33;7.03;;;5.70;99.90;;;;;;4989984;28;20027;-89
2024/02/20 04:44:11;;;;;;;24.98;6.85;;;5.70;99.90;;;;;;4972693;28;20258;-88
2024/02/20 04:46:36;;;;;;;34.40;7.00;;;5.70;99.90;;;;;;4963806;28;20030;-89
2024/02/20 04:49:02;;;;;;;36.78;6.47;;;5.70;99.90;;;;;;4958212;28;20121;-89
2024/02/20 04:51:28;;;;;;;28.67;7.07;;;5.80;99.90;;;;;;4960690;28;20138;-88
2024/02/20 04:53:53;;;;;;;35.45;6.72;;;5.70;99.90;;;;;;4963358;28;20026;-89
2024/02/20 04:56:19;;;;;;;23.45;6.70;;;5.80;99.90;;;;;;4973457;28;20034;-89
2024/02/20 04:58:44;;;;;;;29.58;5.85;;;5.80;99.90;;;;;;4971584;28;20475;-90
2024/02/20 05:01:10;;;;;;;29.17;5.85;;;5.80;99.90;;;;;;4982956;28;20557;-88
2024/02/20 05:03:35;;;;;;;30.08;6.13;;;5.80;99.90;;;;;;4977800;28;20042;-89
2024/02/20 05:06:01;;;;;;;28.60;6.78;;;5.80;99.90;;;;;;4974627;28;20121;-89
2024/02/20 05:08:27;;;;;;;32.10;6.55;;;5.90;99.90;;;;;;4975368;28;20121;-89
2024/02/20 05:10:52;;;;;;;28.15;6.07;;;5.90;99.90;;;;;;4972671;28;20069;-89
2024/02/20 05:13:18;;;;;;;24.40;5.72;;;6.00;99.90;;;;;;4992059;28;20027;-89
2024/02/20 05:15:43;;;;;;;32.75;7.13;;;6.00;99.90;;;;;;4989834;28;20080;-89
2024/02/20 05:18:09;;;;;;;26.08;5.57;;;6.00;99.90;;;;;;4991957;28;20040;-88
2024/02/20 05:20:34;;;;;;;23.85;5.22;;;6.00;99.90;;;;;;4994978;28;20035;-89
2024/02/20 05:23:00;;;;;;;34.72;6.50;;;6.00;99.90;;;;;;4995835;28;20030;-89
2024/02/20 05:25:26;;;;;;;34.97;6.70;;;6.00;99.90;;;;;;4994135;28;20034;-89
2024/02/20 05:27:51;;;;;;;27.25;6.45;;;6.00;99.90;;;;;;4995651;28;20482;-89
2024/02/20 05:30:17;;;;;;;20.98;5.53;;;6.00;99.90;;;;;;4991594;28;20046;-89
2024/02/20 05:32:42;;;;;;;31.80;5.22;;;6.00;99.90;;;;;;4977736;28;20486;-89
2024/02/20 05:35:08;;;;;;;27.58;6.15;;;6.00;99.90;;;;;;4978501;28;20030;-88
2024/02/20 05:37:34;;;;;;;34.50;5.47;;;6.00;99.90;;;;;;4976878;28;20031;-89
2024/02/20 05:39:59;;;;;;;35.08;6.43;;;6.00;99.90;;;;;;4976156;28;20068;-89
2024/02/20 05:42:25;;;;;;;23.63;5.20;;;6.00;99.90;;;;;;4976900;28;20474;-88
2024/02/20 05:44:51;;;;;;;26.40;4.63;;;6.00;99.90;;;;;;4977256;28;20054;-89
2024/02/20 05:47:16;;;;;;;35.13;6.00;;;6.00;99.90;;;;;;4978619;28;20473;-89
2024/02/20 05:49:42;;;;;;;25.85;4.60;;;6.00;99.90;;;;;;4978349;28;20047;-89
2024/02/20 05:52:08;;;;;;;31.35;5.53;;;6.00;99.90;;;;;;4977545;28;20041;-88
2024/02/20 05:54:34;;;;;;;25.00;5.55;;;6.10;99.90;;;;;;4967131;28;20364;-89
2024/02/20 05:56:59;;;;;;;30.05;5.50;;;6.10;99.90;;;;;;4957862;28;20042;-90
2024/02/20 05:59:25;;;;;;;32.10;4.93;;;6.10;99.90;;;;;;4950649;28;20045;-89
2024/02/20 06:01:51;;;;;;;29.13;5.40;;;6.10;99.90;;;;;;4960225;28;20507;-89
2024/02/20 06:04:16;;;;;;;31.55;6.97;;;6.10;99.90;;;;;;4977390;28;20034;-89
2024/02/20 06:06:42;;;;;;;20.92;4.60;;;6.10;99.90;;;;;;4971910;28;20049;-89
2024/02/20 06:09:08;;;;;;;36.45;5.85;;;6.20;99.90;;;;;;4976944;28;20499;-89
2024/02/20 06:11:34;;;;;;;29.67;4.70;;;6.20;99.90;;;;;;4977183;28;20034;-89
2024/02/20 06:14:02;;;;;;;31.67;6.13;;;6.20;99.90;;;;;;4977814;28;20030;-90
2024/02/20 06:16:28;;;;;;;22.25;6.07;;;6.20;99.90;;;;;;4976511;28;20058;-89
2024/02/20 06:18:54;;;;;;;28.30;6.03;;;6.30;99.90;;;;;;4962948;28;20023;-90
2024/02/20 06:21:20;;;;;;;26.42;4.97;;;6.30;99.90;;;;;;4976650;28;20034;-90
2024/02/20 06:23:46;;;;;;;27.15;5.07;;;6.30;99.90;;;;;;4964160;28;20023;-89
2024/02/20 06:26:12;;;;;;;32.00;5.53;;;6.30;99.90;;;;;;4975464;28;20034;-90
2024/02/20 06:28:37;;;;;;;21.85;5.15;;;6.30;99.90;;;;;;4982649;28;20034;-89
2024/02/20 06:31:05;;;;;;;24.45;4.60;;;6.30;99.90;;;;;;4972800;28;20041;-90
2024/02/20 06:33:30;;;;;;;23.40;4.43;;;6.30;99.90;;;;;;4970401;28;20030;-89
2024/02/20 06:35:56;;;;;;;25.80;5.38;;;6.30;99.90;;;;;;4966948;28;20022;-89
2024/02/20 06:38:22;;;;;;;23.63;4.68;;;6.30;99.90;;;;;;4972752;28;20089;-89
2024/02/20 06:40:48;;;;;;;29.05;5.97;;;6.20;99.90;;;;;;4975312;28;20042;-90
2024/02/20 06:43:13;;;;;;;23.92;5.53;;;6.20;99.90;;;;;;4991737;28;20026;-90
2024/02/20 06:45:40;;;;;;;24.58;4.82;;;6.20;99.90;;;;;;4975544;28;20034;-90
2024/02/20 06:48:06;;;;;;;25.33;6.30;;;6.20;99.90;;;;;;4977588;28;20030;-89
2024/02/20 06:50:31;;;;;;;31.42;5.53;;;6.10;99.90;;;;;;4974385;28;20497;-90
2024/02/20 06:52:57;;;;;;;31.67;7.22;;;6.10;99.90;;;;;;4972324;28;20040;-90
2024/02/20 06:55:22;;;;;;;28.35;6.72;;;6.10;99.90;;;;;;4987286;28;20070;-90
2024/02/20 06:57:48;;;;;;;30.85;6.40;;;6.10;99.90;;;;;;4975275;28;20088;-90
2024/02/20 07:00:16;;;;;;;24.48;5.40;;;6.10;99.90;;;;;;4966890;28;20034;-90
2024/02/20 07:02:42;;;;;;;34.17;7.40;;;6.10;99.90;;;;;;4972168;28;20033;-90
2024/02/20 07:05:08;;;;;;;30.38;7.50;;;6.10;99.90;;;;;;4978055;28;20033;-91
2024/02/20 07:07:34;;;;;;;29.40;7.00;;;6.10;99.90;;;;;;4979726;28;20031;-92
2024/02/20 07:10:00;;;;;;;23.55;5.90;;;6.10;99.90;;;;;;4975730;28;20053;-92
2024/02/20 07:12:27;;;;;;;27.02;6.95;;;6.10;99.90;;;;;;4979071;28;20026;-90
2024/02/20 07:14:52;;;;;;;30.63;6.03;;;6.10;99.90;;;;;;4978905;28;20030;-92
2024/02/20 07:17:18;;;;;;;33.35;7.05;;;6.10;99.90;;;;;;4974147;28;20038;-91
2024/02/20 07:19:43;;;;;;;27.33;6.07;;;6.10;99.90;;;;;;4976284;28;20034;-91
2024/02/20 07:22:09;;;;;;;29.38;5.95;;;6.10;99.90;;;;;;4977268;28;20038;-92
2024/02/20 07:24:35;;;;;;;26.38;6.47;;;6.10;99.90;;;;;;4982633;28;20034;-90
2024/02/20 07:27:00;;;;;;;40.55;8.13;;;6.10;99.90;;;;;;4975854;28;20085;-90
2024/02/20 07:29:26;;;;;;;36.35;7.22;;;6.10;99.90;;;;;;4976901;28;20109;-92
2024/02/20 07:31:52;;;;;;;33.88;6.80;;;6.10;99.90;;;;;;4991236;28;20030;-92
2024/02/20 07:34:17;;;;;;;30.35;6.22;;;6.10;99.90;;;;;;4979371;28;20030;-92
2024/02/20 07:36:48;;;;;;;28.08;7.05;;;6.20;99.90;;;;;;4988943;28;20026;-91
2024/02/20 07:39:16;;;;;;;28.52;6.32;;;6.20;99.90;;;;;;4974951;28;20053;-91
2024/02/20 07:41:42;;;;;;;27.65;6.75;;;6.30;99.90;;;;;;4995880;28;20065;-92
2024/02/20 07:44:07;;;;;;;31.85;6.47;;;6.30;99.90;;;;;;4976930;28;20031;-91
2024/02/20 07:46:33;;;;;;;25.17;6.85;;;6.40;99.90;;;;;;4971154;28;20477;-92
2024/02/20 07:49:00;;;;;;;27.95;6.38;;;6.50;99.90;;;;;;4988930;28;20088;-93
2024/02/20 07:51:25;;;;;;;37.50;7.90;;;6.50;99.90;;;;;;4979388;28;20027;-92
2024/02/20 07:53:51;;;;;;;32.58;6.85;;;6.60;99.90;;;;;;4996640;28;20483;-89
2024/02/20 07:56:24;;;;;;;26.88;6.15;;;6.60;99.90;;;;;;4994391;28;20093;-91
2024/02/20 07:58:50;;;;;;;24.85;6.32;;;6.70;99.90;;;;;;4976231;28;20517;-90
2024/02/20 08:01:16;;;;;;;37.08;7.55;;;6.70;99.90;;;;;;4994089;28;20026;-91
2024/02/20 08:03:43;;;;;;;21.50;6.75;;;6.80;99.90;;;;;;4976921;28;20030;-91
2024/02/20 08:06:08;;;;;;;29.67;7.20;;;6.90;99.90;;;;;;4978361;28;20022;-93
2024/02/20 08:08:34;;;;;;;19.63;6.25;;;6.90;99.90;;;;;;4973553;28;20027;-91
2024/02/20 08:11:00;;;;;;;24.65;6.03;;;6.90;99.90;;;;;;4974363;28;20149;-89
2024/02/20 08:13:25;;;;;;;21.80;6.50;;;6.90;99.90;;;;;;4999968;28;20054;-92
2024/02/20 08:15:51;;;;;;;24.90;6.70;;;7.00;99.90;;;;;;4965298;28;20097;-90
2024/02/20 08:18:16;;;;;;;32.65;6.20;;;7.00;99.90;;;;;;4975449;28;20041;-91
2024/02/20 08:20:42;;;;;;;33.53;6.55;;;7.00;99.90;;;;;;4979472;28;20038;-92
2024/02/20 08:23:08;;;;;;;34.05;6.60;;;7.10;99.90;;;;;;4982149;28;20022;-92
2024/02/20 08:25:33;;;;;;;29.42;5.10;;;7.10;99.90;;;;;;4977699;28;20038;-89
2024/02/20 08:27:59;;;;;;;28.02;6.30;;;7.10;99.90;;;;;;4982452;28;20014;-89
2024/02/20 08:30:26;;;;;;;22.45;5.93;;;7.10;99.90;;;;;;4978575;28;20088;-89
2024/02/20 08:32:51;;;;;;;33.97;6.45;;;7.20;99.90;;;;;;4994308;28;20051;-90
2024/02/20 08:35:17;;;;;;;30.73;6.55;;;7.20;99.90;;;;;;4993922;28;20138;-90
2024/02/20 08:37:43;;;;;;;22.52;5.75;;;7.30;99.90;;;;;;4994477;28;20031;-90
2024/02/20 08:40:10;;;;;;;29.80;6.18;;;7.30;99.90;;;;;;4975517;28;20062;-90
2024/02/20 08:42:36;;;;;;;30.80;6.95;;;7.30;99.90;;;;;;4977095;28;20490;-90
2024/02/20 08:45:04;;;;;;;27.13;6.15;;;7.40;99.90;;;;;;4978990;28;20038;-90
2024/02/20 08:47:30;;;;;;;34.33;6.75;;;7.50;99.90;;;;;;4977069;28;20026;-91
2024/02/20 08:49:56;;;;;;;40.35;8.13;;;7.50;99.90;;;;;;4975540;28;20076;-91
2024/02/20 08:52:21;;;;;;;30.35;7.25;;;7.60;99.90;;;;;;4994077;28;20437;-90
2024/02/20 08:54:47;;;;;;;29.08;6.80;;;7.60;99.90;;;;;;4985540;28;20030;-92
2024/02/20 08:57:13;;;;;;;37.88;7.60;;;7.70;99.90;;;;;;4991586;28;20078;-90
2024/02/20 08:59:38;;;;;;;26.20;7.70;;;7.80;99.90;;;;;;4985807;28;20039;-91
2024/02/20 09:02:04;;;;;;;34.80;8.30;;;7.80;99.90;;;;;;4984529;28;20027;-90
2024/02/20 09:04:30;;;;;;;34.05;8.10;;;7.90;99.90;;;;;;4971258;28;20034;-92
2024/02/20 09:06:56;;;;;;;30.00;7.93;;;8.00;99.90;;;;;;4994252;28;20022;-91
2024/02/20 09:09:23;;;;;;;31.75;8.60;;;8.00;99.90;;;;;;4973141;28;20050;-91
2024/02/20 09:11:52;;;;;;;35.85;8.25;;;8.10;99.90;;;;;;4969273;28;20034;-91
2024/02/20 09:14:21;;;;;;;30.73;8.30;;;8.10;99.90;;;;;;4987047;28;20041;-92
2024/02/20 09:16:47;;;;;;;34.92;9.05;;;8.20;99.90;;;;;;4983944;28;20022;-92
2024/02/20 09:19:15;;;;;;;28.25;7.57;;;8.20;99.90;;;;;;4972494;28;20086;-91
2024/02/20 09:21:41;;;;;;;30.48;7.95;;;8.30;99.90;;;;;;4981852;28;20387;-91
2024/02/20 09:24:10;;;;;;;24.42;7.82;;;8.30;99.90;;;;;;4973076;28;20022;-92
2024/02/20 09:26:36;;;;;;;31.80;9.38;;;8.30;99.90;;;;;;4958364;28;20496;-91
2024/02/20 09:29:02;;;;;;;24.35;8.43;;;8.30;99.90;;;;;;4962287;28;20039;-90
2024/02/20 09:31:28;;;;;;;23.00;9.02;;;8.30;99.90;;;;;;4990072;28;20049;-91
2024/02/20 09:33:53;;;;;;;28.95;7.82;;;8.30;99.90;;;;;;4966541;28;20026;-90
2024/02/20 09:36:19;;;;;;;27.23;9.38;;;8.30;99.90;;;;;;4977430;28;20031;-90
2024/02/20 09:38:44;;;;;;;33.22;8.25;;;8.30;99.90;;;;;;4974002;28;20109;-90
2024/02/20 09:41:12;;;;;;;33.45;8.52;;;8.40;99.90;;;;;;4971940;28;20027;-90
2024/02/20 09:43:39;;;;;;;38.65;9.50;;;8.40;99.90;;;;;;4967706;28;20033;-89
2024/02/20 09:46:12;;;;;;;27.90;8.23;;;8.50;99.90;;;;;;4971112;28;20022;-91
2024/02/20 09:48:39;;;;;;;39.08;9.93;;;8.50;99.90;;;;;;4969228;28;20126;-90
2024/02/20 09:51:06;;;;;;;32.75;9.13;;;8.50;99.90;;;;;;4973708;28;20023;-91
2024/02/20 09:53:34;;;;;;;28.52;9.70;;;8.60;99.90;;;;;;4975235;28;20110;-89
2024/02/20 09:56:00;;;;;;;38.58;9.68;;;8.70;99.90;;;;;;4975293;28;20053;-89
2024/02/20 09:58:26;;;;;;;28.40;9.10;;;8.70;99.90;;;;;;4971956;28;20482;-90
2024/02/20 10:00:57;;;;;;;38.85;10.35;;;8.80;99.90;;;;;;4970780;28;20033;-89
2024/02/20 10:03:26;;;;;;;32.40;10.55;;;8.90;99.90;;;;;;4976850;28;20027;-90
2024/02/20 10:05:52;;;;;;;35.88;9.65;;;9.00;99.90;;;;;;4977278;28;20134;-90
2024/02/20 10:08:22;;;;;;;33.22;9.10;;;9.10;99.90;;;;;;4981699;28;20080;-89
2024/02/20 10:10:48;;;;;;;30.27;10.68;;;9.10;99.90;;;;;;4978421;28;20074;-89
2024/02/20 10:13:14;;;;;;;34.47;10.18;;;9.20;99.90;;;;;;4967559;28;20533;-88
2024/02/20 10:15:40;;;;;;;31.60;9.95;;;9.30;99.90;;;;;;4973588;28;20154;-90
2024/02/20 10:18:07;;;;;;;30.65;9.98;;;9.30;99.90;;;;;;4976512;28;20034;-90
2024/02/20 10:20:32;;;;;;;39.72;10.45;;;9.40;99.90;;;;;;4976551;28;20054;-88
2024/02/20 10:23:09;;;;;;;35.95;10.77;;;9.40;99.90;;;;;;4976995;28;20031;-89
2024/02/20 10:25:36;;;;;;;31.98;10.27;;;9.40;99.90;;;;;;4971305;28;20137;-89
2024/02/20 10:28:05;;;;;;;37.83;10.80;;;9.40;99.90;;;;;;4978206;28;20038;-89
2024/02/20 10:30:31;;;;;;;31.73;9.68;;;9.50;99.90;;;;;;4976834;28;20049;-88
2024/02/20 10:32:57;;;;;;;26.73;8.88;;;9.50;99.90;;;;;;4996658;28;20030;-90
2024/02/20 10:35:23;;;;;;;28.98;10.05;;;9.60;99.90;;;;;;4979492;28;20057;-90
2024/02/20 10:38:02;;;;;;;35.33;11.73;;;9.60;99.90;;;;;;4981177;28;20058;-90
2024/02/20 10:40:29;;;;;;;32.72;10.35;;;9.60;99.90;;;;;;4985962;28;20039;-89
2024/02/20 10:42:56;;;;;;;38.05;10.20;;;9.70;99.90;;;;;;4977921;28;20035;-89
2024/02/20 10:45:22;;;;;;;26.70;9.35;;;9.70;99.90;;;;;;4996722;28;20188;-90
2024/02/20 10:47:49;;;;;;;33.95;9.95;;;9.80;99.90;;;;;;4979874;28;20030;-90
2024/02/20 10:50:15;;;;;;;42.40;9.93;;;9.80;99.90;;;;;;4975998;28;20039;-88
2024/02/20 10:52:42;;;;;;;28.27;8.43;;;9.80;99.90;;;;;;4992026;28;20022;-90
2024/02/20 10:55:12;;;;;;;35.42;10.70;;;9.80;99.90;;;;;;4982572;28;20037;-89
2024/02/20 10:57:41;;;;;;;35.25;10.95;;;9.90;99.90;;;;;;4980055;28;20042;-88
2024/02/20 11:00:09;;;;;;;31.63;9.05;;;9.90;99.90;;;;;;4989497;28;20517;-90
2024/02/20 11:02:45;;;;;;;38.10;9.25;;;9.90;99.90;;;;;;4982979;28;20030;-90
2024/02/20 11:05:12;;;;;;;27.33;8.43;;;9.90;99.90;;;;;;4981592;28;20148;-89
2024/02/20 11:07:40;;;;;;;29.77;8.90;;;10.00;99.90;;;;;;4994702;28;20475;-89
2024/02/20 11:10:10;;;;;;;24.15;8.63;;;10.00;99.90;;;;;;4978433;28;20406;-90
2024/02/20 11:12:39;;;;;;;24.02;7.65;;;10.00;99.90;;;;;;4992575;28;20027;-90
2024/02/20 11:15:28;;;;;;;29.05;8.07;;;10.00;99.90;;;;;;4994443;28;20034;-90
2024/02/20 11:17:53;;;;;;;33.63;8.68;;;10.10;99.90;;;;;;4968852;28;20034;-89
2024/02/20 11:20:21;;;;;;;31.85;8.55;;;10.10;99.90;;;;;;4975562;28;20394;-89
2024/02/20 11:22:50;;;;;;;24.52;7.80;;;10.10;99.90;;;;;;4966475;28;20026;-89
2024/02/20 11:25:26;;;;;;;26.77;8.10;;;10.20;99.90;;;;;;4984153;28;20105;-90
2024/02/20 11:27:52;;;;;;;27.98;7.65;;;10.30;99.90;;;;;;4984491;28;20026;-89
2024/02/20 11:30:19;;;;;;;35.03;8.48;;;10.30;99.90;;;;;;4975799;28;20179;-89
2024/02/20 11:32:49;;;;;;;25.38;8.48;;;10.40;99.90;;;;;;4973467;28;20080;-89
2024/02/20 11:35:21;;;;;;;29.52;8.02;;;10.40;99.90;;;;;;4980300;28;20038;-89
2024/02/20 11:37:53;;;;;;;26.60;7.35;;;10.50;99.90;;;;;;4975566;28;20030;-90
2024/02/20 11:40:30;;;;;;;29.58;7.55;;;10.50;99.90;;;;;;4975574;28;20030;-90
2024/02/20 11:43:04;;;;;;;28.88;7.30;;;10.60;99.90;;;;;;4971834;28;20121;-90
2024/02/20 11:45:34;;;;;;;30.45;7.78;;;10.60;99.90;;;;;;4985560;28;20121;-89
2024/02/20 11:48:20;;;;;;;27.15;7.25;;;10.70;99.90;;;;;;4978716;28;20125;-89
2024/02/20 11:50:46;;;;;;;26.52;7.75;;;10.70;99.90;;;;;;4988657;28;20052;-90
2024/02/20 11:53:16;;;;;;;22.70;8.23;;;10.80;99.90;;;;;;4989473;28;20026;-91
2024/02/20 11:55:53;;;;;;;25.63;7.97;;;10.90;99.90;;;;;;4992894;28;20031;-90
2024/02/20 11:58:23;;;;;;;23.00;6.60;;;11.00;99.90;;;;;;4974752;28;20466;-90
2024/02/20 12:00:52;;;;;;;30.17;8.52;;;11.00;99.90;;;;;;4975089;28;20029;-89
2024/02/20 12:03:32;;;;;;;32.03;6.97;;;11.10;99.90;;;;;;4971333;28;20153;-89
2024/02/20 12:06:02;;;;;;;29.80;7.40;;;11.10;99.90;;;;;;4979069;28;20036;-91
2024/02/20 12:08:39;;;;;;;20.92;5.72;;;11.00;99.90;;;;;;4973276;28;20121;-89
2024/02/20 12:11:06;;;;;;;22.52;6.40;;;11.10;99.90;;;;;;4989019;28;20026;-89
2024/02/20 12:13:32;;;;;;;20.13;5.82;;;11.10;99.90;;;;;;4975346;28;20026;-91
2024/02/20 12:15:58;;;;;;;26.67;6.22;;;11.10;99.90;;;;;;4976126;28;20034;-90
2024/02/20 12:18:25;;;;;;;22.70;6.25;;;11.20;99.90;;;;;;4976881;28;20077;-90
2024/02/20 12:20:52;;;;;;;22.52;4.90;;;11.20;99.90;;;;;;4975810;28;20030;-90
2024/02/20 12:23:19;;;;;;;26.08;6.20;;;11.30;99.90;;;;;;4979961;28;20034;-90
2024/02/20 12:25:45;;;;;;;22.05;5.07;;;11.40;99.90;;;;;;4977576;28;20022;-90
2024/02/20 12:28:11;;;;;;;26.42;6.60;;;11.40;99.90;;;;;;4975783;28;20035;-89
2024/02/20 12:30:37;;;;;;;28.30;5.75;;;11.40;99.90;;;;;;4976541;28;20042;-90
2024/02/20 12:33:03;;;;;;;21.60;4.75;;;11.50;99.90;;;;;;4982662;28;20049;-91
2024/02/20 12:35:28;;;;;;;24.92;5.55;;;11.40;99.90;;;;;;4977987;28;20034;-89
2024/02/20 12:37:54;;;;;;;27.85;5.63;;;11.50;99.90;;;;;;4985296;28;20030;-91
2024/02/20 12:40:20;;;;;;;19.52;4.72;;;11.50;99.90;;;;;;4980826;28;20031;-89
2024/02/20 12:42:46;;;;;;;26.45;5.78;;;11.50;99.90;;;;;;4975550;28;20022;-90
2024/02/20 12:45:12;;;;;;;24.83;5.70;;;11.50;99.90;;;;;;4974947;28;20026;-89